sensor_id;sensor_type;location;lat;lon;timestamp;P1;durP1;ratioP1;P2;durP2;ratioP2
30966;SDS011;17649;51.836;8.330;2023-02-18T08:30:29;330.27;;;108.77;;
30966;SDS011;17649;51.836;8.330;2023-02-18T08:33:29;12.02;;;7.53;;
30966;SDS011;17649;51.836;8.330;2023-02-18T08:36:30;14.00;;;8.40;;
30966;SDS011;17649;51.836;8.330;2023-02-18T08:39:34;12.70;;;8.27;;
30966;SDS011;17649;51.836;8.330;2023-02-18T08:42:35;13.38;;;8.93;;
30966;SDS011;17649;51.836;8.330;2023-02-18T08:45:39;15.15;;;8.75;;
30966;SDS011;17649;51.836;8.330;2023-02-18T08:48:41;14.82;;;9.98;;
30966;SDS011;17649;51.836;8.330;2023-02-18T08:51:41;15.40;;;9.90;;
30966;SDS011;17649;51.836;8.330;2023-02-18T08:54:42;17.55;;;9.82;;
30966;SDS011;17649;51.836;8.330;2023-02-18T08:57:42;14.88;;;9.38;;
30966;SDS011;17649;51.836;8.330;2023-02-18T09:00:43;14.68;;;8.82;;
30966;SDS011;17649;51.836;8.330;2023-02-18T09:03:44;13.67;;;8.90;;
30966;SDS011;17649;51.836;8.330;2023-02-18T09:06:44;16.02;;;9.10;;
30966;SDS011;17649;51.836;8.330;2023-02-18T09:09:45;14.38;;;8.98;;
30966;SDS011;17649;51.836;8.330;2023-02-18T09:12:46;13.38;;;8.70;;
30966;SDS011;17649;51.836;8.330;2023-02-18T09:15:54;13.93;;;9.00;;
30966;SDS011;17649;51.836;8.330;2023-02-18T09:18:56;17.08;;;10.80;;
30966;SDS011;17649;51.836;8.330;2023-02-18T09:21:57;18.43;;;11.13;;
30966;SDS011;17649;51.836;8.330;2023-02-18T09:24:58;20.25;;;11.63;;
30966;SDS011;17649;51.836;8.330;2023-02-18T09:27:58;19.33;;;11.75;;
30966;SDS011;17649;51.836;8.330;2023-02-18T09:31:02;16.35;;;10.73;;
30966;SDS011;17649;51.836;8.330;2023-02-18T09:34:07;20.52;;;11.18;;
30966;SDS011;17649;51.836;8.330;2023-02-18T09:37:07;16.73;;;10.57;;
30966;SDS011;17649;51.836;8.330;2023-02-18T09:40:10;14.90;;;10.68;;
30966;SDS011;17649;51.836;8.330;2023-02-18T09:46:35;13.80;;;8.82;;
30966;SDS011;17649;51.836;8.330;2023-02-18T09:49:40;13.73;;;9.63;;
30966;SDS011;17649;51.836;8.330;2023-02-18T09:52:46;13.50;;;9.25;;
30966;SDS011;17649;51.836;8.330;2023-02-18T09:55:47;13.18;;;9.80;;
30966;SDS011;17649;51.836;8.330;2023-02-18T09:58:50;16.90;;;9.85;;
30966;SDS011;17649;51.836;8.330;2023-02-18T10:01:52;13.83;;;9.73;;
30966;SDS011;17649;51.836;8.330;2023-02-18T10:04:57;13.50;;;9.57;;
30966;SDS011;17649;51.836;8.330;2023-02-18T10:08:08;12.63;;;8.53;;
30966;SDS011;17649;51.836;8.330;2023-02-18T10:11:23;16.63;;;9.52;;
30966;SDS011;17649;51.836;8.330;2023-02-18T10:14:52;13.65;;;9.63;;
30966;SDS011;17649;51.836;8.330;2023-02-18T10:17:58;24.60;;;13.27;;
30966;SDS011;17649;51.836;8.330;2023-02-18T10:21:07;16.23;;;10.88;;
30966;SDS011;17649;51.836;8.330;2023-02-18T10:27:36;16.63;;;11.20;;
30966;SDS011;17649;51.836;8.330;2023-02-18T10:30:41;18.08;;;12.35;;
30966;SDS011;17649;51.836;8.330;2023-02-18T10:53:47;25.08;;;13.68;;
30966;SDS011;17649;51.836;8.330;2023-02-18T10:56:50;18.63;;;12.50;;
30966;SDS011;17649;51.836;8.330;2023-02-18T11:00:01;27.15;;;14.25;;
30966;SDS011;17649;51.836;8.330;2023-02-18T11:03:12;34.05;;;13.55;;
30966;SDS011;17649;51.836;8.330;2023-02-18T11:09:29;21.90;;;13.88;;
30966;SDS011;17649;51.836;8.330;2023-02-18T11:12:33;21.58;;;12.90;;
30966;SDS011;17649;51.836;8.330;2023-02-18T11:15:54;27.45;;;13.55;;
30966;SDS011;17649;51.836;8.330;2023-02-18T11:19:00;28.35;;;13.93;;
30966;SDS011;17649;51.836;8.330;2023-02-18T11:25:21;24.15;;;14.77;;
30966;SDS011;17649;51.836;8.330;2023-02-18T11:28:26;24.90;;;14.65;;
30966;SDS011;17649;51.836;8.330;2023-02-18T11:31:40;31.90;;;15.27;;
30966;SDS011;17649;51.836;8.330;2023-02-18T11:34:52;22.13;;;14.73;;
30966;SDS011;17649;51.836;8.330;2023-02-18T11:37:54;24.52;;;14.18;;
30966;SDS011;17649;51.836;8.330;2023-02-18T11:41:01;20.98;;;12.07;;
30966;SDS011;17649;51.836;8.330;2023-02-18T11:44:07;22.88;;;13.27;;
30966;SDS011;17649;51.836;8.330;2023-02-18T11:47:21;24.73;;;13.73;;
30966;SDS011;17649;51.836;8.330;2023-02-18T11:50:22;21.63;;;13.55;;
30966;SDS011;17649;51.836;8.330;2023-02-18T11:56:32;21.30;;;12.15;;
30966;SDS011;17649;51.836;8.330;2023-02-18T11:59:35;23.08;;;12.45;;
30966;SDS011;17649;51.836;8.330;2023-02-18T12:02:38;21.08;;;12.10;;
30966;SDS011;17649;51.836;8.330;2023-02-18T12:05:40;18.25;;;10.73;;
30966;SDS011;17649;51.836;8.330;2023-02-18T12:08:47;23.10;;;10.98;;
30966;SDS011;17649;51.836;8.330;2023-02-18T12:11:52;19.63;;;12.43;;
30966;SDS011;17649;51.836;8.330;2023-02-18T12:14:56;19.63;;;11.83;;
30966;SDS011;17649;51.836;8.330;2023-02-18T12:41:27;16.60;;;11.85;;
30966;SDS011;17649;51.836;8.330;2023-02-18T12:44:56;15.63;;;11.10;;
30966;SDS011;17649;51.836;8.330;2023-02-18T12:51:20;14.65;;;10.52;;
30966;SDS011;17649;51.836;8.330;2023-02-18T13:01:37;15.18;;;9.73;;
30966;SDS011;17649;51.836;8.330;2023-02-18T13:04:51;12.52;;;8.73;;
30966;SDS011;17649;51.836;8.330;2023-02-18T13:11:46;11.45;;;9.27;;
30966;SDS011;17649;51.836;8.330;2023-02-18T13:15:20;23.45;;;9.57;;
30966;SDS011;17649;51.836;8.330;2023-02-18T13:18:29;12.27;;;8.13;;
30966;SDS011;17649;51.836;8.330;2023-02-18T13:21:49;14.88;;;8.65;;
30966;SDS011;17649;51.836;8.330;2023-02-18T13:25:11;12.77;;;8.85;;
30966;SDS011;17649;51.836;8.330;2023-02-18T13:31:45;12.77;;;8.23;;
30966;SDS011;17649;51.836;8.330;2023-02-18T13:45:31;20.38;;;9.35;;
30966;SDS011;17649;51.836;8.330;2023-02-18T13:48:34;14.15;;;9.18;;
30966;SDS011;17649;51.836;8.330;2023-02-18T13:51:51;19.25;;;8.38;;
30966;SDS011;17649;51.836;8.330;2023-02-18T13:54:55;17.90;;;9.55;;
30966;SDS011;17649;51.836;8.330;2023-02-18T13:57:56;16.40;;;7.72;;
30966;SDS011;17649;51.836;8.330;2023-02-18T14:08:13;13.07;;;7.63;;
30966;SDS011;17649;51.836;8.330;2023-02-18T14:17:31;15.52;;;8.90;;
30966;SDS011;17649;51.836;8.330;2023-02-18T14:23:41;36.38;;;21.58;;
30966;SDS011;17649;51.836;8.330;2023-02-18T14:26:47;10.60;;;7.47;;
30966;SDS011;17649;51.836;8.330;2023-02-18T14:29:49;10.95;;;7.68;;
30966;SDS011;17649;51.836;8.330;2023-02-18T14:32:52;12.35;;;6.75;;
30966;SDS011;17649;51.836;8.330;2023-02-18T14:43:10;9.68;;;5.55;;
30966;SDS011;17649;51.836;8.330;2023-02-18T14:49:49;7.80;;;5.55;;
30966;SDS011;17649;51.836;8.330;2023-02-18T14:52:55;11.45;;;6.13;;
30966;SDS011;17649;51.836;8.330;2023-02-18T14:56:01;8.10;;;5.88;;
30966;SDS011;17649;51.836;8.330;2023-02-18T14:59:04;9.90;;;5.72;;
30966;SDS011;17649;51.836;8.330;2023-02-18T15:02:22;10.80;;;6.90;;
30966;SDS011;17649;51.836;8.330;2023-02-18T15:05:27;11.70;;;6.85;;
30966;SDS011;17649;51.836;8.330;2023-02-18T15:08:35;9.55;;;6.47;;
30966;SDS011;17649;51.836;8.330;2023-02-18T15:11:39;13.32;;;6.57;;
30966;SDS011;17649;51.836;8.330;2023-02-18T15:14:43;14.50;;;7.68;;
30966;SDS011;17649;51.836;8.330;2023-02-18T15:17:47;11.20;;;6.80;;
30966;SDS011;17649;51.836;8.330;2023-02-18T15:20:48;11.07;;;7.20;;
30966;SDS011;17649;51.836;8.330;2023-02-18T15:23:52;15.73;;;7.85;;
30966;SDS011;17649;51.836;8.330;2023-02-18T15:26:54;12.02;;;7.47;;
30966;SDS011;17649;51.836;8.330;2023-02-18T15:30:01;16.52;;;7.35;;
30966;SDS011;17649;51.836;8.330;2023-02-18T15:33:41;16.08;;;7.28;;
30966;SDS011;17649;51.836;8.330;2023-02-18T15:36:48;12.70;;;7.50;;
30966;SDS011;17649;51.836;8.330;2023-02-18T15:39:51;12.70;;;7.30;;
30966;SDS011;17649;51.836;8.330;2023-02-18T15:42:58;13.02;;;7.18;;
30966;SDS011;17649;51.836;8.330;2023-02-18T15:46:01;15.57;;;7.75;;
30966;SDS011;17649;51.836;8.330;2023-02-18T15:49:15;14.13;;;7.80;;
30966;SDS011;17649;51.836;8.330;2023-02-18T15:52:32;14.20;;;7.20;;
30966;SDS011;17649;51.836;8.330;2023-02-18T15:55:40;12.93;;;7.63;;
30966;SDS011;17649;51.836;8.330;2023-02-18T15:58:46;16.75;;;7.22;;
30966;SDS011;17649;51.836;8.330;2023-02-18T16:01:51;16.02;;;7.32;;
30966;SDS011;17649;51.836;8.330;2023-02-18T16:04:56;13.80;;;7.40;;
30966;SDS011;17649;51.836;8.330;2023-02-18T16:08:04;13.98;;;8.07;;
30966;SDS011;17649;51.836;8.330;2023-02-18T16:11:11;16.15;;;8.70;;
30966;SDS011;17649;51.836;8.330;2023-02-18T16:17:35;17.65;;;9.77;;
30966;SDS011;17649;51.836;8.330;2023-02-18T16:20:53;21.08;;;10.48;;
30966;SDS011;17649;51.836;8.330;2023-02-18T17:34:45;20.17;;;12.23;;
30966;SDS011;17649;51.836;8.330;2023-02-18T17:37:47;21.03;;;12.07;;
30966;SDS011;17649;51.836;8.330;2023-02-18T17:43:59;18.77;;;10.65;;
30966;SDS011;17649;51.836;8.330;2023-02-18T17:47:00;21.90;;;11.38;;
30966;SDS011;17649;51.836;8.330;2023-02-18T17:50:00;26.25;;;11.98;;
30966;SDS011;17649;51.836;8.330;2023-02-18T17:53:01;21.58;;;10.93;;
30966;SDS011;17649;51.836;8.330;2023-02-18T17:56:01;22.75;;;10.43;;
30966;SDS011;17649;51.836;8.330;2023-02-18T17:59:02;21.20;;;11.35;;
30966;SDS011;17649;51.836;8.330;2023-02-18T18:02:02;25.27;;;12.10;;
30966;SDS011;17649;51.836;8.330;2023-02-18T18:05:03;21.30;;;12.52;;
30966;SDS011;17649;51.836;8.330;2023-02-18T18:08:05;20.67;;;11.07;;
30966;SDS011;17649;51.836;8.330;2023-02-18T18:11:10;23.00;;;10.95;;
30966;SDS011;17649;51.836;8.330;2023-02-18T18:14:16;21.95;;;10.27;;
30966;SDS011;17649;51.836;8.330;2023-02-18T18:17:22;21.95;;;11.23;;
30966;SDS011;17649;51.836;8.330;2023-02-18T18:20:25;22.10;;;10.63;;
30966;SDS011;17649;51.836;8.330;2023-02-18T18:23:28;26.02;;;11.43;;
30966;SDS011;17649;51.836;8.330;2023-02-18T18:26:28;17.35;;;11.43;;
30966;SDS011;17649;51.836;8.330;2023-02-18T18:29:31;20.63;;;10.68;;
30966;SDS011;17649;51.836;8.330;2023-02-18T18:32:38;18.00;;;9.77;;
30966;SDS011;17649;51.836;8.330;2023-02-18T18:35:38;25.10;;;11.33;;
30966;SDS011;17649;51.836;8.330;2023-02-18T18:38:38;25.17;;;11.40;;
30966;SDS011;17649;51.836;8.330;2023-02-18T18:41:39;21.60;;;10.60;;
30966;SDS011;17649;51.836;8.330;2023-02-18T18:44:39;26.73;;;12.50;;
30966;SDS011;17649;51.836;8.330;2023-02-18T18:47:40;22.70;;;11.77;;
30966;SDS011;17649;51.836;8.330;2023-02-18T18:50:40;30.05;;;13.02;;
30966;SDS011;17649;51.836;8.330;2023-02-18T18:53:41;22.60;;;11.88;;
30966;SDS011;17649;51.836;8.330;2023-02-18T18:56:41;21.85;;;11.43;;
30966;SDS011;17649;51.836;8.330;2023-02-18T18:59:42;22.88;;;11.80;;
30966;SDS011;17649;51.836;8.330;2023-02-18T19:02:42;22.30;;;12.23;;
30966;SDS011;17649;51.836;8.330;2023-02-18T19:05:44;30.05;;;13.75;;
30966;SDS011;17649;51.836;8.330;2023-02-18T19:08:45;30.85;;;15.32;;
30966;SDS011;17649;51.836;8.330;2023-02-18T19:11:46;24.50;;;12.90;;
30966;SDS011;17649;51.836;8.330;2023-02-18T19:14:47;21.35;;;12.95;;
30966;SDS011;17649;51.836;8.330;2023-02-18T19:17:48;33.25;;;14.40;;
30966;SDS011;17649;51.836;8.330;2023-02-18T19:20:52;32.38;;;16.25;;
30966;SDS011;17649;51.836;8.330;2023-02-18T19:23:52;39.58;;;18.95;;
30966;SDS011;17649;51.836;8.330;2023-02-18T19:26:53;36.35;;;21.27;;
30966;SDS011;17649;51.836;8.330;2023-02-18T19:29:54;45.60;;;24.30;;
30966;SDS011;17649;51.836;8.330;2023-02-18T19:32:55;43.55;;;24.08;;
30966;SDS011;17649;51.836;8.330;2023-02-18T19:35:57;48.22;;;24.60;;
30966;SDS011;17649;51.836;8.330;2023-02-18T19:38:57;60.53;;;28.63;;
30966;SDS011;17649;51.836;8.330;2023-02-18T19:41:58;58.92;;;25.83;;
30966;SDS011;17649;51.836;8.330;2023-02-18T19:44:58;46.25;;;24.40;;
30966;SDS011;17649;51.836;8.330;2023-02-18T19:47:59;44.67;;;22.98;;
30966;SDS011;17649;51.836;8.330;2023-02-18T19:51:00;45.58;;;21.52;;
30966;SDS011;17649;51.836;8.330;2023-02-18T19:54:03;44.35;;;23.58;;
30966;SDS011;17649;51.836;8.330;2023-02-18T19:57:03;48.95;;;24.92;;
30966;SDS011;17649;51.836;8.330;2023-02-18T20:00:06;46.15;;;22.52;;
30966;SDS011;17649;51.836;8.330;2023-02-18T20:03:08;48.13;;;24.55;;
30966;SDS011;17649;51.836;8.330;2023-02-18T20:06:16;41.50;;;21.50;;
30966;SDS011;17649;51.836;8.330;2023-02-18T20:09:18;51.40;;;24.45;;
30966;SDS011;17649;51.836;8.330;2023-02-18T20:12:19;53.58;;;23.15;;
30966;SDS011;17649;51.836;8.330;2023-02-18T20:15:20;46.65;;;22.58;;
30966;SDS011;17649;51.836;8.330;2023-02-18T20:18:21;44.50;;;22.58;;
30966;SDS011;17649;51.836;8.330;2023-02-18T20:21:21;47.90;;;23.27;;
30966;SDS011;17649;51.836;8.330;2023-02-18T20:24:21;44.20;;;20.88;;
30966;SDS011;17649;51.836;8.330;2023-02-18T20:27:23;43.70;;;21.88;;
30966;SDS011;17649;51.836;8.330;2023-02-18T20:30:30;44.40;;;21.00;;
30966;SDS011;17649;51.836;8.330;2023-02-18T20:33:31;43.17;;;21.77;;
30966;SDS011;17649;51.836;8.330;2023-02-18T20:36:31;44.05;;;22.45;;
30966;SDS011;17649;51.836;8.330;2023-02-18T20:39:32;42.88;;;21.98;;
30966;SDS011;17649;51.836;8.330;2023-02-18T20:42:34;44.85;;;22.98;;
30966;SDS011;17649;51.836;8.330;2023-02-18T20:45:35;51.20;;;24.95;;
30966;SDS011;17649;51.836;8.330;2023-02-18T20:48:39;55.25;;;26.10;;
30966;SDS011;17649;51.836;8.330;2023-02-18T20:51:40;51.53;;;25.17;;
30966;SDS011;17649;51.836;8.330;2023-02-18T20:54:41;51.22;;;26.98;;
30966;SDS011;17649;51.836;8.330;2023-02-18T20:57:42;54.27;;;27.10;;
30966;SDS011;17649;51.836;8.330;2023-02-18T21:00:43;56.30;;;27.67;;
30966;SDS011;17649;51.836;8.330;2023-02-18T21:03:51;48.67;;;27.58;;
30966;SDS011;17649;51.836;8.330;2023-02-18T21:07:02;58.40;;;27.20;;
30966;SDS011;17649;51.836;8.330;2023-02-18T21:10:10;53.70;;;26.05;;
30966;SDS011;17649;51.836;8.330;2023-02-18T21:13:10;59.65;;;27.77;;
30966;SDS011;17649;51.836;8.330;2023-02-18T21:16:11;60.05;;;28.20;;
30966;SDS011;17649;51.836;8.330;2023-02-18T21:19:16;51.13;;;25.38;;
30966;SDS011;17649;51.836;8.330;2023-02-18T21:22:19;52.40;;;26.80;;
30966;SDS011;17649;51.836;8.330;2023-02-18T21:25:22;45.28;;;24.73;;
30966;SDS011;17649;51.836;8.330;2023-02-18T21:28:23;49.10;;;24.20;;
30966;SDS011;17649;51.836;8.330;2023-02-18T21:31:26;49.47;;;22.85;;
30966;SDS011;17649;51.836;8.330;2023-02-18T21:34:29;46.58;;;23.25;;
30966;SDS011;17649;51.836;8.330;2023-02-18T21:37:30;44.93;;;21.17;;
30966;SDS011;17649;51.836;8.330;2023-02-18T21:40:33;49.90;;;20.25;;
30966;SDS011;17649;51.836;8.330;2023-02-18T21:43:35;38.33;;;19.33;;
30966;SDS011;17649;51.836;8.330;2023-02-18T21:46:36;36.60;;;19.45;;
30966;SDS011;17649;51.836;8.330;2023-02-18T21:49:37;37.60;;;19.17;;
30966;SDS011;17649;51.836;8.330;2023-02-18T21:52:38;37.85;;;19.45;;
30966;SDS011;17649;51.836;8.330;2023-02-18T21:55:41;38.05;;;18.13;;
30966;SDS011;17649;51.836;8.330;2023-02-18T21:58:41;38.53;;;18.65;;
30966;SDS011;17649;51.836;8.330;2023-02-18T22:01:43;39.78;;;19.42;;
30966;SDS011;17649;51.836;8.330;2023-02-18T22:04:45;43.03;;;19.42;;
30966;SDS011;17649;51.836;8.330;2023-02-18T22:07:47;37.00;;;18.17;;
30966;SDS011;17649;51.836;8.330;2023-02-18T22:10:47;37.20;;;19.02;;
30966;SDS011;17649;51.836;8.330;2023-02-18T22:13:48;39.45;;;19.60;;
30966;SDS011;17649;51.836;8.330;2023-02-18T22:16:48;33.92;;;17.75;;
30966;SDS011;17649;51.836;8.330;2023-02-18T22:19:49;34.80;;;18.10;;
30966;SDS011;17649;51.836;8.330;2023-02-18T22:22:49;35.55;;;19.80;;
30966;SDS011;17649;51.836;8.330;2023-02-18T22:25:49;38.05;;;20.02;;
30966;SDS011;17649;51.836;8.330;2023-02-18T22:28:55;34.40;;;17.35;;
30966;SDS011;17649;51.836;8.330;2023-02-18T22:31:57;34.63;;;17.00;;
30966;SDS011;17649;51.836;8.330;2023-02-18T22:34:57;38.28;;;18.05;;
30966;SDS011;17649;51.836;8.330;2023-02-18T22:37:58;33.13;;;15.98;;
30966;SDS011;17649;51.836;8.330;2023-02-18T22:41:01;30.08;;;15.50;;
30966;SDS011;17649;51.836;8.330;2023-02-18T22:44:06;26.15;;;12.90;;
30966;SDS011;17649;51.836;8.330;2023-02-18T22:47:10;24.63;;;11.90;;
30966;SDS011;17649;51.836;8.330;2023-02-18T22:50:10;26.42;;;12.88;;
30966;SDS011;17649;51.836;8.330;2023-02-18T22:53:11;22.48;;;12.88;;
30966;SDS011;17649;51.836;8.330;2023-02-18T22:56:13;24.48;;;13.32;;
30966;SDS011;17649;51.836;8.330;2023-02-18T22:59:16;23.23;;;10.90;;
30966;SDS011;17649;51.836;8.330;2023-02-18T23:02:16;27.30;;;11.40;;
30966;SDS011;17649;51.836;8.330;2023-02-18T23:05:20;21.33;;;11.35;;
30966;SDS011;17649;51.836;8.330;2023-02-18T23:08:21;21.25;;;12.05;;
30966;SDS011;17649;51.836;8.330;2023-02-18T23:11:23;28.75;;;13.82;;
30966;SDS011;17649;51.836;8.330;2023-02-18T23:14:24;25.20;;;12.85;;
30966;SDS011;17649;51.836;8.330;2023-02-18T23:17:27;26.80;;;13.27;;
30966;SDS011;17649;51.836;8.330;2023-02-18T23:20:27;22.80;;;11.77;;
30966;SDS011;17649;51.836;8.330;2023-02-18T23:23:48;18.80;;;10.35;;
30966;SDS011;17649;51.836;8.330;2023-02-18T23:26:53;24.42;;;11.43;;
30966;SDS011;17649;51.836;8.330;2023-02-18T23:29:53;16.65;;;9.90;;
30966;SDS011;17649;51.836;8.330;2023-02-18T23:32:55;17.90;;;9.17;;
30966;SDS011;17649;51.836;8.330;2023-02-18T23:35:55;18.27;;;9.43;;
30966;SDS011;17649;51.836;8.330;2023-02-18T23:39:02;16.38;;;9.13;;
30966;SDS011;17649;51.836;8.330;2023-02-18T23:42:04;21.23;;;11.38;;
30966;SDS011;17649;51.836;8.330;2023-02-18T23:45:05;19.77;;;10.63;;
30966;SDS011;17649;51.836;8.330;2023-02-18T23:48:05;24.02;;;12.35;;
30966;SDS011;17649;51.836;8.330;2023-02-18T23:51:06;37.30;;;18.13;;
30966;SDS011;17649;51.836;8.330;2023-02-18T23:54:08;49.97;;;22.75;;
30966;SDS011;17649;51.836;8.330;2023-02-18T23:57:09;56.00;;;27.33;;
